Austin, Texas
Traffic Map
Current Weather Conditions
Austin, Texas
Clear
Clear
52°
Feels Like: 52°
Wind Chill: 52° Ceiling: Unl
Heat Index: 52° Visibility: 10mi
Dew Point: 36° Wind: 10mph
Humidity: 54% Direction: 300° (WNW)
Pressure: 30.14in Gusts: 0mph
Raw Report DataKATT 271151Z AUTO 30009KT 10SM CLR 11/02 A3014 RMK AO2 SLP205 T01110022 10128 20111 55001 $
Traffic Incident Summary
Active as of:
Severity:
Category:
InformationThere was an issue retrieving the traffic information for this location. Please try a different location or try again shortly.
Advertisements
Track Severe Weather on mobile